sensor_id;sensor_type;location;lat;lon;timestamp;P1;durP1;ratioP1;P2;durP2;ratioP2
64799;SDS011;51233;51.982;4.594;2023-06-24T00:01:03;2.30;;;2.10;;
64799;SDS011;51233;51.982;4.594;2023-06-24T00:04:03;2.80;;;2.17;;
64799;SDS011;51233;51.982;4.594;2023-06-24T00:07:06;2.33;;;2.13;;
64799;SDS011;51233;51.982;4.594;2023-06-24T00:10:13;3.25;;;2.50;;
64799;SDS011;51233;51.982;4.594;2023-06-24T00:13:14;2.10;;;2.00;;
64799;SDS011;51233;51.982;4.594;2023-06-24T00:16:14;2.35;;;2.15;;
64799;SDS011;51233;51.982;4.594;2023-06-24T00:19:14;3.10;;;2.37;;
64799;SDS011;51233;51.982;4.594;2023-06-24T00:22:15;1.90;;;1.80;;
64799;SDS011;51233;51.982;4.594;2023-06-24T00:25:15;2.57;;;2.20;;
64799;SDS011;51233;51.982;4.594;2023-06-24T00:28:15;2.17;;;2.07;;
64799;SDS011;51233;51.982;4.594;2023-06-24T00:31:15;3.65;;;2.83;;
64799;SDS011;51233;51.982;4.594;2023-06-24T00:34:16;2.50;;;2.00;;
64799;SDS011;51233;51.982;4.594;2023-06-24T00:37:19;2.60;;;2.20;;
64799;SDS011;51233;51.982;4.594;2023-06-24T00:40:22;3.45;;;2.28;;
64799;SDS011;51233;51.982;4.594;2023-06-24T00:43:22;4.88;;;2.30;;
64799;SDS011;51233;51.982;4.594;2023-06-24T00:46:24;2.77;;;2.13;;
64799;SDS011;51233;51.982;4.594;2023-06-24T00:49:25;2.47;;;2.28;;
64799;SDS011;51233;51.982;4.594;2023-06-24T00:52:25;3.53;;;2.30;;
64799;SDS011;51233;51.982;4.594;2023-06-24T00:55:28;2.88;;;2.15;;
64799;SDS011;51233;51.982;4.594;2023-06-24T00:58:31;2.17;;;1.97;;
64799;SDS011;51233;51.982;4.594;2023-06-24T01:01:33;2.45;;;2.25;;
64799;SDS011;51233;51.982;4.594;2023-06-24T01:04:33;2.53;;;2.20;;
64799;SDS011;51233;51.982;4.594;2023-06-24T01:07:34;2.47;;;2.27;;
64799;SDS011;51233;51.982;4.594;2023-06-24T01:10:35;2.40;;;2.20;;
64799;SDS011;51233;51.982;4.594;2023-06-24T01:13:36;2.50;;;2.30;;
64799;SDS011;51233;51.982;4.594;2023-06-24T01:26:20;3.20;;;2.40;;
64799;SDS011;51233;51.982;4.594;2023-06-24T01:32:38;2.17;;;2.03;;
64799;SDS011;51233;51.982;4.594;2023-06-24T01:35:44;2.60;;;2.40;;
64799;SDS011;51233;51.982;4.594;2023-06-24T01:38:58;3.22;;;2.40;;
64799;SDS011;51233;51.982;4.594;2023-06-24T01:42:02;2.72;;;2.38;;
64799;SDS011;51233;51.982;4.594;2023-06-24T01:45:06;3.20;;;2.30;;
64799;SDS011;51233;51.982;4.594;2023-06-24T01:48:16;2.60;;;2.40;;
64799;SDS011;51233;51.982;4.594;2023-06-24T01:51:18;2.42;;;2.22;;
64799;SDS011;51233;51.982;4.594;2023-06-24T01:57:20;2.77;;;2.57;;
64799;SDS011;51233;51.982;4.594;2023-06-24T02:00:21;3.45;;;2.50;;
64799;SDS011;51233;51.982;4.594;2023-06-24T02:03:21;4.30;;;2.43;;
64799;SDS011;51233;51.982;4.594;2023-06-24T02:06:22;4.72;;;2.90;;
64799;SDS011;51233;51.982;4.594;2023-06-24T02:09:26;3.55;;;2.40;;
64799;SDS011;51233;51.982;4.594;2023-06-24T02:12:28;2.60;;;2.40;;
64799;SDS011;51233;51.982;4.594;2023-06-24T02:15:28;4.77;;;2.70;;
64799;SDS011;51233;51.982;4.594;2023-06-24T02:18:29;3.57;;;2.80;;
64799;SDS011;51233;51.982;4.594;2023-06-24T02:21:33;3.00;;;2.67;;
64799;SDS011;51233;51.982;4.594;2023-06-24T02:24:35;3.05;;;2.60;;
64799;SDS011;51233;51.982;4.594;2023-06-24T02:27:36;3.97;;;2.65;;
64799;SDS011;51233;51.982;4.594;2023-06-24T02:30:37;2.75;;;2.55;;
64799;SDS011;51233;51.982;4.594;2023-06-24T02:33:38;2.72;;;2.53;;
64799;SDS011;51233;51.982;4.594;2023-06-24T02:36:38;3.10;;;2.80;;
64799;SDS011;51233;51.982;4.594;2023-06-24T02:39:39;2.80;;;2.53;;
64799;SDS011;51233;51.982;4.594;2023-06-24T02:42:44;4.07;;;2.78;;
64799;SDS011;51233;51.982;4.594;2023-06-24T02:45:45;2.80;;;2.60;;
64799;SDS011;51233;51.982;4.594;2023-06-24T02:48:46;3.97;;;2.85;;
64799;SDS011;51233;51.982;4.594;2023-06-24T02:51:47;3.03;;;2.83;;
64799;SDS011;51233;51.982;4.594;2023-06-24T02:54:48;3.00;;;2.80;;
64799;SDS011;51233;51.982;4.594;2023-06-24T02:57:48;3.27;;;2.73;;
64799;SDS011;51233;51.982;4.594;2023-06-24T03:00:50;4.63;;;3.08;;
64799;SDS011;51233;51.982;4.594;2023-06-24T03:03:54;3.53;;;3.20;;
64799;SDS011;51233;51.982;4.594;2023-06-24T03:06:54;3.10;;;2.90;;
64799;SDS011;51233;51.982;4.594;2023-06-24T03:09:54;3.33;;;3.10;;
64799;SDS011;51233;51.982;4.594;2023-06-24T03:12:55;4.88;;;3.03;;
64799;SDS011;51233;51.982;4.594;2023-06-24T03:15:55;3.23;;;2.80;;
64799;SDS011;51233;51.982;4.594;2023-06-24T03:18:55;3.47;;;3.20;;
64799;SDS011;51233;51.982;4.594;2023-06-24T03:21:55;3.33;;;3.10;;
64799;SDS011;51233;51.982;4.594;2023-06-24T03:24:55;3.70;;;3.10;;
64799;SDS011;51233;51.982;4.594;2023-06-24T03:28:03;3.33;;;2.83;;
64799;SDS011;51233;51.982;4.594;2023-06-24T03:31:03;3.42;;;3.13;;
64799;SDS011;51233;51.982;4.594;2023-06-24T03:34:04;3.00;;;2.70;;
64799;SDS011;51233;51.982;4.594;2023-06-24T03:37:04;3.10;;;2.90;;
64799;SDS011;51233;51.982;4.594;2023-06-24T03:40:04;3.50;;;3.20;;
64799;SDS011;51233;51.982;4.594;2023-06-24T03:43:05;7.05;;;2.97;;
64799;SDS011;51233;51.982;4.594;2023-06-24T03:46:05;3.35;;;2.88;;
64799;SDS011;51233;51.982;4.594;2023-06-24T03:49:05;5.47;;;2.88;;
64799;SDS011;51233;51.982;4.594;2023-06-24T03:52:06;3.20;;;3.00;;
64799;SDS011;51233;51.982;4.594;2023-06-24T03:55:08;3.28;;;2.97;;
64799;SDS011;51233;51.982;4.594;2023-06-24T03:58:09;3.13;;;2.83;;
64799;SDS011;51233;51.982;4.594;2023-06-24T04:01:09;4.50;;;3.40;;
64799;SDS011;51233;51.982;4.594;2023-06-24T04:04:09;3.45;;;2.90;;
64799;SDS011;51233;51.982;4.594;2023-06-24T04:07:09;4.93;;;3.15;;
64799;SDS011;51233;51.982;4.594;2023-06-24T04:10:10;4.83;;;2.73;;
64799;SDS011;51233;51.982;4.594;2023-06-24T04:13:10;3.50;;;3.20;;
64799;SDS011;51233;51.982;4.594;2023-06-24T04:16:10;3.40;;;2.70;;
64799;SDS011;51233;51.982;4.594;2023-06-24T04:19:11;3.63;;;2.87;;
64799;SDS011;51233;51.982;4.594;2023-06-24T04:22:11;3.50;;;2.97;;
64799;SDS011;51233;51.982;4.594;2023-06-24T04:25:11;4.73;;;3.23;;
64799;SDS011;51233;51.982;4.594;2023-06-24T04:28:12;3.87;;;2.77;;
64799;SDS011;51233;51.982;4.594;2023-06-24T04:31:12;3.60;;;3.07;;
64799;SDS011;51233;51.982;4.594;2023-06-24T04:34:12;5.97;;;2.73;;
64799;SDS011;51233;51.982;4.594;2023-06-24T04:37:15;3.50;;;2.90;;
64799;SDS011;51233;51.982;4.594;2023-06-24T04:40:17;3.50;;;3.08;;
64799;SDS011;51233;51.982;4.594;2023-06-24T04:43:17;3.20;;;3.00;;
64799;SDS011;51233;51.982;4.594;2023-06-24T04:46:17;5.47;;;3.38;;
64799;SDS011;51233;51.982;4.594;2023-06-24T04:49:17;4.23;;;3.50;;
64799;SDS011;51233;51.982;4.594;2023-06-24T04:52:18;4.83;;;3.70;;
64799;SDS011;51233;51.982;4.594;2023-06-24T04:55:18;3.95;;;3.55;;
64799;SDS011;51233;51.982;4.594;2023-06-24T04:58:18;4.50;;;3.47;;
64799;SDS011;51233;51.982;4.594;2023-06-24T05:01:18;4.03;;;3.67;;
64799;SDS011;51233;51.982;4.594;2023-06-24T05:04:19;8.40;;;4.10;;
64799;SDS011;51233;51.982;4.594;2023-06-24T05:07:19;4.60;;;4.20;;
64799;SDS011;51233;51.982;4.594;2023-06-24T05:10:22;4.93;;;4.53;;
64799;SDS011;51233;51.982;4.594;2023-06-24T05:13:22;6.90;;;4.90;;
64799;SDS011;51233;51.982;4.594;2023-06-24T05:16:23;5.73;;;4.77;;
64799;SDS011;51233;51.982;4.594;2023-06-24T05:19:24;5.30;;;4.80;;
64799;SDS011;51233;51.982;4.594;2023-06-24T05:22:24;6.50;;;4.13;;
64799;SDS011;51233;51.982;4.594;2023-06-24T05:25:24;6.47;;;4.80;;
64799;SDS011;51233;51.982;4.594;2023-06-24T05:28:24;4.67;;;4.23;;
64799;SDS011;51233;51.982;4.594;2023-06-24T05:31:24;4.17;;;3.43;;
64799;SDS011;51233;51.982;4.594;2023-06-24T05:34:25;5.40;;;4.32;;
64799;SDS011;51233;51.982;4.594;2023-06-24T05:37:25;7.03;;;4.93;;
64799;SDS011;51233;51.982;4.594;2023-06-24T05:40:25;7.72;;;5.15;;
64799;SDS011;51233;51.982;4.594;2023-06-24T05:43:28;7.68;;;3.97;;
64799;SDS011;51233;51.982;4.594;2023-06-24T05:46:28;6.55;;;4.68;;
64799;SDS011;51233;51.982;4.594;2023-06-24T05:49:29;5.95;;;4.10;;
64799;SDS011;51233;51.982;4.594;2023-06-24T05:52:29;6.55;;;3.88;;
64799;SDS011;51233;51.982;4.594;2023-06-24T05:55:29;7.10;;;4.67;;
64799;SDS011;51233;51.982;4.594;2023-06-24T05:58:29;4.80;;;4.30;;
64799;SDS011;51233;51.982;4.594;2023-06-24T06:01:30;4.30;;;3.72;;
64799;SDS011;51233;51.982;4.594;2023-06-24T06:04:30;4.60;;;4.20;;
64799;SDS011;51233;51.982;4.594;2023-06-24T06:07:30;5.70;;;4.50;;
64799;SDS011;51233;51.982;4.594;2023-06-24T06:10:30;5.10;;;4.27;;
64799;SDS011;51233;51.982;4.594;2023-06-24T06:13:30;5.27;;;4.60;;
64799;SDS011;51233;51.982;4.594;2023-06-24T06:16:31;8.33;;;5.03;;
64799;SDS011;51233;51.982;4.594;2023-06-24T06:19:31;8.13;;;5.03;;
64799;SDS011;51233;51.982;4.594;2023-06-24T06:22:31;6.00;;;5.40;;
64799;SDS011;51233;51.982;4.594;2023-06-24T06:25:37;10.05;;;4.72;;
64799;SDS011;51233;51.982;4.594;2023-06-24T06:28:38;8.18;;;5.03;;
64799;SDS011;51233;51.982;4.594;2023-06-24T06:31:38;5.67;;;4.10;;
64799;SDS011;51233;51.982;4.594;2023-06-24T06:34:39;2.78;;;2.58;;
64799;SDS011;51233;51.982;4.594;2023-06-24T06:37:39;6.50;;;5.90;;
64799;SDS011;51233;51.982;4.594;2023-06-24T06:40:42;7.55;;;5.65;;
64799;SDS011;51233;51.982;4.594;2023-06-24T06:43:42;5.97;;;5.20;;
64799;SDS011;51233;51.982;4.594;2023-06-24T06:46:42;6.03;;;5.20;;
64799;SDS011;51233;51.982;4.594;2023-06-24T06:49:48;5.15;;;4.75;;
64799;SDS011;51233;51.982;4.594;2023-06-24T06:52:48;5.38;;;4.82;;
64799;SDS011;51233;51.982;4.594;2023-06-24T06:55:48;6.53;;;5.30;;
64799;SDS011;51233;51.982;4.594;2023-06-24T06:58:48;6.63;;;5.03;;
64799;SDS011;51233;51.982;4.594;2023-06-24T07:01:49;7.57;;;6.10;;
64799;SDS011;51233;51.982;4.594;2023-06-24T07:04:49;7.03;;;6.10;;
64799;SDS011;51233;51.982;4.594;2023-06-24T07:10:50;8.40;;;6.22;;
64799;SDS011;51233;51.982;4.594;2023-06-24T07:13:51;7.23;;;6.10;;
64799;SDS011;51233;51.982;4.594;2023-06-24T07:16:51;8.83;;;5.80;;
64799;SDS011;51233;51.982;4.594;2023-06-24T07:19:51;8.67;;;6.13;;
64799;SDS011;51233;51.982;4.594;2023-06-24T07:22:52;6.73;;;5.20;;
64799;SDS011;51233;51.982;4.594;2023-06-24T07:25:52;8.70;;;6.17;;
64799;SDS011;51233;51.982;4.594;2023-06-24T07:28:52;5.40;;;5.00;;
64799;SDS011;51233;51.982;4.594;2023-06-24T07:31:53;6.27;;;5.37;;
64799;SDS011;51233;51.982;4.594;2023-06-24T07:34:53;11.05;;;6.45;;
64799;SDS011;51233;51.982;4.594;2023-06-24T07:37:58;6.18;;;5.50;;
64799;SDS011;51233;51.982;4.594;2023-06-24T07:40:58;9.70;;;5.83;;
64799;SDS011;51233;51.982;4.594;2023-06-24T07:44:01;5.50;;;5.00;;
64799;SDS011;51233;51.982;4.594;2023-06-24T07:47:02;5.18;;;4.72;;
64799;SDS011;51233;51.982;4.594;2023-06-24T07:50:02;7.53;;;5.70;;
64799;SDS011;51233;51.982;4.594;2023-06-24T07:53:03;6.70;;;6.00;;
64799;SDS011;51233;51.982;4.594;2023-06-24T07:56:03;6.83;;;5.10;;
64799;SDS011;51233;51.982;4.594;2023-06-24T07:59:03;5.80;;;4.83;;
64799;SDS011;51233;51.982;4.594;2023-06-24T08:02:03;5.50;;;5.00;;
64799;SDS011;51233;51.982;4.594;2023-06-24T08:05:07;7.22;;;4.68;;
64799;SDS011;51233;51.982;4.594;2023-06-24T08:08:08;7.13;;;5.83;;
64799;SDS011;51233;51.982;4.594;2023-06-24T08:11:08;8.98;;;5.03;;
64799;SDS011;51233;51.982;4.594;2023-06-24T08:14:08;6.17;;;5.57;;
64799;SDS011;51233;51.982;4.594;2023-06-24T08:17:08;5.87;;;5.07;;
64799;SDS011;51233;51.982;4.594;2023-06-24T08:20:09;6.28;;;5.65;;
64799;SDS011;51233;51.982;4.594;2023-06-24T08:23:09;6.03;;;4.90;;
64799;SDS011;51233;51.982;4.594;2023-06-24T08:26:09;8.23;;;5.73;;
64799;SDS011;51233;51.982;4.594;2023-06-24T08:29:09;6.77;;;4.50;;
64799;SDS011;51233;51.982;4.594;2023-06-24T08:32:13;5.70;;;5.03;;
64799;SDS011;51233;51.982;4.594;2023-06-24T08:35:13;7.13;;;5.85;;
64799;SDS011;51233;51.982;4.594;2023-06-24T08:38:13;10.77;;;5.63;;
64799;SDS011;51233;51.982;4.594;2023-06-24T08:41:13;7.65;;;6.18;;
64799;SDS011;51233;51.982;4.594;2023-06-24T08:44:13;5.40;;;4.90;;
64799;SDS011;51233;51.982;4.594;2023-06-24T08:47:14;9.30;;;5.33;;
64799;SDS011;51233;51.982;4.594;2023-06-24T08:50:16;8.98;;;7.00;;
64799;SDS011;51233;51.982;4.594;2023-06-24T08:53:18;9.98;;;5.47;;
64799;SDS011;51233;51.982;4.594;2023-06-24T08:56:18;6.70;;;5.43;;
64799;SDS011;51233;51.982;4.594;2023-06-24T08:59:18;7.87;;;6.10;;
64799;SDS011;51233;51.982;4.594;2023-06-24T09:05:20;11.65;;;8.63;;
64799;SDS011;51233;51.982;4.594;2023-06-24T09:08:21;7.20;;;5.83;;
64799;SDS011;51233;51.982;4.594;2023-06-24T09:11:22;8.88;;;5.93;;
64799;SDS011;51233;51.982;4.594;2023-06-24T09:14:23;7.35;;;6.45;;
64799;SDS011;51233;51.982;4.594;2023-06-24T09:17:24;8.52;;;5.35;;
64799;SDS011;51233;51.982;4.594;2023-06-24T09:20:24;9.93;;;6.27;;
64799;SDS011;51233;51.982;4.594;2023-06-24T09:23:25;9.07;;;6.90;;
64799;SDS011;51233;51.982;4.594;2023-06-24T09:26:27;7.28;;;6.57;;
64799;SDS011;51233;51.982;4.594;2023-06-24T09:29:32;7.40;;;6.13;;
64799;SDS011;51233;51.982;4.594;2023-06-24T09:32:32;3.88;;;3.58;;
64799;SDS011;51233;51.982;4.594;2023-06-24T09:35:34;6.13;;;5.33;;
64799;SDS011;51233;51.982;4.594;2023-06-24T09:38:35;8.35;;;5.20;;
64799;SDS011;51233;51.982;4.594;2023-06-24T09:41:36;7.53;;;5.22;;
64799;SDS011;51233;51.982;4.594;2023-06-24T09:44:36;9.40;;;5.60;;
64799;SDS011;51233;51.982;4.594;2023-06-24T09:47:36;7.15;;;5.50;;
64799;SDS011;51233;51.982;4.594;2023-06-24T09:50:37;6.70;;;5.87;;
64799;SDS011;51233;51.982;4.594;2023-06-24T09:53:37;9.47;;;6.63;;
64799;SDS011;51233;51.982;4.594;2023-06-24T09:56:40;7.63;;;6.80;;
64799;SDS011;51233;51.982;4.594;2023-06-24T09:59:44;7.05;;;6.05;;
64799;SDS011;51233;51.982;4.594;2023-06-24T10:02:46;4.88;;;4.47;;
64799;SDS011;51233;51.982;4.594;2023-06-24T10:05:47;8.77;;;6.13;;
64799;SDS011;51233;51.982;4.594;2023-06-24T10:08:48;10.60;;;5.70;;
64799;SDS011;51233;51.982;4.594;2023-06-24T10:11:48;5.90;;;5.03;;
64799;SDS011;51233;51.982;4.594;2023-06-24T10:14:51;11.57;;;6.03;;
64799;SDS011;51233;51.982;4.594;2023-06-24T10:17:52;8.25;;;6.55;;
64799;SDS011;51233;51.982;4.594;2023-06-24T10:20:55;8.87;;;5.27;;
64799;SDS011;51233;51.982;4.594;2023-06-24T10:23:55;2.55;;;2.35;;
64799;SDS011;51233;51.982;4.594;2023-06-24T10:26:59;4.93;;;4.00;;
64799;SDS011;51233;51.982;4.594;2023-06-24T10:30:02;9.93;;;7.13;;
64799;SDS011;51233;51.982;4.594;2023-06-24T10:33:02;5.30;;;4.80;;
64799;SDS011;51233;51.982;4.594;2023-06-24T10:36:07;8.02;;;6.43;;
64799;SDS011;51233;51.982;4.594;2023-06-24T10:39:39;6.18;;;5.50;;
64799;SDS011;51233;51.982;4.594;2023-06-24T10:42:39;7.97;;;5.50;;
64799;SDS011;51233;51.982;4.594;2023-06-24T10:45:48;7.32;;;6.50;;
64799;SDS011;51233;51.982;4.594;2023-06-24T10:48:48;6.53;;;4.63;;
64799;SDS011;51233;51.982;4.594;2023-06-24T10:51:48;8.73;;;5.22;;
64799;SDS011;51233;51.982;4.594;2023-06-24T10:54:49;7.10;;;5.17;;
64799;SDS011;51233;51.982;4.594;2023-06-24T10:57:49;9.02;;;6.78;;
64799;SDS011;51233;51.982;4.594;2023-06-24T11:00:50;5.40;;;4.13;;
64799;SDS011;51233;51.982;4.594;2023-06-24T11:03:50;10.27;;;4.13;;
64799;SDS011;51233;51.982;4.594;2023-06-24T11:06:57;8.98;;;7.53;;
64799;SDS011;51233;51.982;4.594;2023-06-24T11:09:59;5.00;;;3.60;;
64799;SDS011;51233;51.982;4.594;2023-06-24T11:13:04;14.48;;;6.50;;
64799;SDS011;51233;51.982;4.594;2023-06-24T11:16:05;13.00;;;5.93;;
64799;SDS011;51233;51.982;4.594;2023-06-24T11:19:14;8.50;;;5.70;;
64799;SDS011;51233;51.982;4.594;2023-06-24T11:22:15;7.65;;;5.53;;
64799;SDS011;51233;51.982;4.594;2023-06-24T11:25:16;9.77;;;4.28;;
64799;SDS011;51233;51.982;4.594;2023-06-24T11:28:17;10.00;;;4.95;;
64799;SDS011;51233;51.982;4.594;2023-06-24T11:31:17;14.43;;;6.03;;
64799;SDS011;51233;51.982;4.594;2023-06-24T11:34:27;5.63;;;4.13;;
64799;SDS011;51233;51.982;4.594;2023-06-24T11:37:30;10.68;;;4.88;;
64799;SDS011;51233;51.982;4.594;2023-06-24T11:40:31;7.57;;;5.40;;
64799;SDS011;51233;51.982;4.594;2023-06-24T11:43:33;7.47;;;5.10;;
64799;SDS011;51233;51.982;4.594;2023-06-24T11:46:37;4.05;;;3.08;;
64799;SDS011;51233;51.982;4.594;2023-06-24T11:49:55;5.95;;;2.55;;
64799;SDS011;51233;51.982;4.594;2023-06-24T11:52:55;7.82;;;5.15;;
64799;SDS011;51233;51.982;4.594;2023-06-24T11:55:55;8.60;;;5.20;;
64799;SDS011;51233;51.982;4.594;2023-06-24T11:58:56;8.10;;;4.67;;
64799;SDS011;51233;51.982;4.594;2023-06-24T12:04:57;6.27;;;4.70;;
64799;SDS011;51233;51.982;4.594;2023-06-24T12:07:58;6.07;;;4.22;;
64799;SDS011;51233;51.982;4.594;2023-06-24T12:10:59;4.60;;;3.97;;
64799;SDS011;51233;51.982;4.594;2023-06-24T12:13:59;5.05;;;4.03;;
64799;SDS011;51233;51.982;4.594;2023-06-24T12:16:59;10.87;;;5.93;;
64799;SDS011;51233;51.982;4.594;2023-06-24T12:20:03;6.90;;;4.65;;
64799;SDS011;51233;51.982;4.594;2023-06-24T12:23:03;4.22;;;3.83;;
64799;SDS011;51233;51.982;4.594;2023-06-24T12:26:03;10.45;;;4.30;;
64799;SDS011;51233;51.982;4.594;2023-06-24T12:29:04;7.50;;;4.90;;
64799;SDS011;51233;51.982;4.594;2023-06-24T12:32:04;4.85;;;4.20;;
64799;SDS011;51233;51.982;4.594;2023-06-24T12:35:05;7.38;;;4.80;;
64799;SDS011;51233;51.982;4.594;2023-06-24T12:41:06;5.45;;;4.88;;
64799;SDS011;51233;51.982;4.594;2023-06-24T12:44:09;8.70;;;4.25;;
64799;SDS011;51233;51.982;4.594;2023-06-24T12:47:09;4.28;;;3.22;;
64799;SDS011;51233;51.982;4.594;2023-06-24T12:50:09;5.82;;;4.80;;
64799;SDS011;51233;51.982;4.594;2023-06-24T12:53:10;5.15;;;4.28;;
64799;SDS011;51233;51.982;4.594;2023-06-24T12:56:11;8.32;;;4.40;;
64799;SDS011;51233;51.982;4.594;2023-06-24T12:59:11;7.03;;;4.70;;
64799;SDS011;51233;51.982;4.594;2023-06-24T13:02:13;6.82;;;4.88;;
64799;SDS011;51233;51.982;4.594;2023-06-24T13:05:17;6.32;;;4.40;;
64799;SDS011;51233;51.982;4.594;2023-06-24T13:08:17;5.15;;;4.22;;
64799;SDS011;51233;51.982;4.594;2023-06-24T13:11:17;6.30;;;4.20;;
64799;SDS011;51233;51.982;4.594;2023-06-24T13:14:18;6.13;;;4.75;;
64799;SDS011;51233;51.982;4.594;2023-06-24T13:17:18;6.03;;;4.85;;
64799;SDS011;51233;51.982;4.594;2023-06-24T13:20:18;7.60;;;5.07;;
64799;SDS011;51233;51.982;4.594;2023-06-24T13:23:18;6.20;;;4.70;;
64799;SDS011;51233;51.982;4.594;2023-06-24T13:26:19;7.30;;;6.60;;
64799;SDS011;51233;51.982;4.594;2023-06-24T13:29:19;12.07;;;5.97;;
64799;SDS011;51233;51.982;4.594;2023-06-24T13:32:22;6.60;;;5.43;;
64799;SDS011;51233;51.982;4.594;2023-06-24T13:35:23;7.88;;;5.63;;
64799;SDS011;51233;51.982;4.594;2023-06-24T13:38:23;9.38;;;5.75;;
64799;SDS011;51233;51.982;4.594;2023-06-24T13:41:23;6.57;;;5.90;;
64799;SDS011;51233;51.982;4.594;2023-06-24T13:44:26;7.03;;;5.63;;
64799;SDS011;51233;51.982;4.594;2023-06-24T13:47:26;6.70;;;5.60;;
64799;SDS011;51233;51.982;4.594;2023-06-24T13:50:26;6.03;;;5.45;;
64799;SDS011;51233;51.982;4.594;2023-06-24T13:53:26;7.53;;;6.37;;
64799;SDS011;51233;51.982;4.594;2023-06-24T13:56:27;13.00;;;4.30;;
64799;SDS011;51233;51.982;4.594;2023-06-24T13:59:27;6.55;;;4.22;;
64799;SDS011;51233;51.982;4.594;2023-06-24T14:02:27;5.13;;;4.63;;
64799;SDS011;51233;51.982;4.594;2023-06-24T14:05:28;5.80;;;5.20;;
64799;SDS011;51233;51.982;4.594;2023-06-24T14:08:48;5.63;;;4.33;;
64799;SDS011;51233;51.982;4.594;2023-06-24T14:11:49;5.90;;;4.90;;
64799;SDS011;51233;51.982;4.594;2023-06-24T14:14:49;6.33;;;5.60;;
64799;SDS011;51233;51.982;4.594;2023-06-24T14:17:49;7.57;;;5.67;;
64799;SDS011;51233;51.982;4.594;2023-06-24T14:20:50;10.18;;;5.88;;
64799;SDS011;51233;51.982;4.594;2023-06-24T14:23:50;7.83;;;5.87;;
64799;SDS011;51233;51.982;4.594;2023-06-24T14:26:50;4.63;;;4.23;;
64799;SDS011;51233;51.982;4.594;2023-06-24T14:29:50;9.57;;;5.70;;
64799;SDS011;51233;51.982;4.594;2023-06-24T14:32:50;5.37;;;4.97;;
64799;SDS011;51233;51.982;4.594;2023-06-24T14:35:51;7.43;;;5.97;;
64799;SDS011;51233;51.982;4.594;2023-06-24T14:38:51;6.33;;;5.03;;
64799;SDS011;51233;51.982;4.594;2023-06-24T14:41:51;7.78;;;6.43;;
64799;SDS011;51233;51.982;4.594;2023-06-24T14:44:51;6.93;;;6.23;;
64799;SDS011;51233;51.982;4.594;2023-06-24T14:47:52;6.73;;;5.47;;
64799;SDS011;51233;51.982;4.594;2023-06-24T14:50:52;5.97;;;5.32;;
64799;SDS011;51233;51.982;4.594;2023-06-24T14:53:52;5.93;;;5.33;;
64799;SDS011;51233;51.982;4.594;2023-06-24T14:56:52;8.10;;;5.30;;
64799;SDS011;51233;51.982;4.594;2023-06-24T14:59:52;3.33;;;2.80;;
64799;SDS011;51233;51.982;4.594;2023-06-24T15:02:53;9.13;;;6.43;;
64799;SDS011;51233;51.982;4.594;2023-06-24T15:05:53;8.40;;;6.70;;
64799;SDS011;51233;51.982;4.594;2023-06-24T15:08:53;8.10;;;5.90;;
64799;SDS011;51233;51.982;4.594;2023-06-24T15:11:53;7.28;;;5.82;;
64799;SDS011;51233;51.982;4.594;2023-06-24T15:14:56;7.43;;;5.70;;
64799;SDS011;51233;51.982;4.594;2023-06-24T15:18:03;4.90;;;4.45;;
64799;SDS011;51233;51.982;4.594;2023-06-24T15:21:06;5.57;;;5.13;;
64799;SDS011;51233;51.982;4.594;2023-06-24T15:24:06;7.18;;;5.30;;
64799;SDS011;51233;51.982;4.594;2023-06-24T15:27:06;5.30;;;4.88;;
64799;SDS011;51233;51.982;4.594;2023-06-24T15:30:07;4.63;;;4.20;;
64799;SDS011;51233;51.982;4.594;2023-06-24T15:33:07;5.57;;;4.93;;
64799;SDS011;51233;51.982;4.594;2023-06-24T15:36:07;6.90;;;4.75;;
64799;SDS011;51233;51.982;4.594;2023-06-24T15:39:08;6.28;;;5.55;;
64799;SDS011;51233;51.982;4.594;2023-06-24T15:42:08;5.33;;;4.83;;
64799;SDS011;51233;51.982;4.594;2023-06-24T15:45:10;6.47;;;5.43;;
64799;SDS011;51233;51.982;4.594;2023-06-24T15:48:10;5.73;;;5.17;;
64799;SDS011;51233;51.982;4.594;2023-06-24T15:51:10;10.70;;;7.50;;
64799;SDS011;51233;51.982;4.594;2023-06-24T15:54:10;6.13;;;5.50;;
64799;SDS011;51233;51.982;4.594;2023-06-24T15:57:11;7.68;;;6.72;;
64799;SDS011;51233;51.982;4.594;2023-06-24T16:00:11;9.07;;;7.63;;
64799;SDS011;51233;51.982;4.594;2023-06-24T16:03:11;8.80;;;7.13;;
64799;SDS011;51233;51.982;4.594;2023-06-24T16:06:12;8.13;;;7.13;;
64799;SDS011;51233;51.982;4.594;2023-06-24T16:09:14;7.88;;;6.55;;
64799;SDS011;51233;51.982;4.594;2023-06-24T16:12:15;13.40;;;8.97;;
64799;SDS011;51233;51.982;4.594;2023-06-24T16:15:16;10.23;;;8.57;;
64799;SDS011;51233;51.982;4.594;2023-06-24T16:18:17;8.70;;;7.80;;
64799;SDS011;51233;51.982;4.594;2023-06-24T16:21:17;8.20;;;7.30;;
64799;SDS011;51233;51.982;4.594;2023-06-24T16:24:17;6.50;;;5.83;;
64799;SDS011;51233;51.982;4.594;2023-06-24T16:27:17;7.70;;;6.90;;
64799;SDS011;51233;51.982;4.594;2023-06-24T16:30:17;8.00;;;6.10;;
64799;SDS011;51233;51.982;4.594;2023-06-24T16:33:21;9.00;;;5.95;;
64799;SDS011;51233;51.982;4.594;2023-06-24T16:36:22;7.18;;;6.47;;
64799;SDS011;51233;51.982;4.594;2023-06-24T16:39:22;6.90;;;5.97;;
64799;SDS011;51233;51.982;4.594;2023-06-24T16:42:22;7.90;;;6.80;;
64799;SDS011;51233;51.982;4.594;2023-06-24T16:45:23;5.37;;;4.87;;
64799;SDS011;51233;51.982;4.594;2023-06-24T16:48:23;7.27;;;5.87;;
64799;SDS011;51233;51.982;4.594;2023-06-24T16:51:23;6.20;;;5.50;;
64799;SDS011;51233;51.982;4.594;2023-06-24T16:54:26;5.70;;;5.18;;
64799;SDS011;51233;51.982;4.594;2023-06-24T16:57:26;5.70;;;5.20;;
64799;SDS011;51233;51.982;4.594;2023-06-24T17:00:27;6.53;;;5.90;;
64799;SDS011;51233;51.982;4.594;2023-06-24T17:03:27;6.73;;;6.23;;
64799;SDS011;51233;51.982;4.594;2023-06-24T17:06:29;5.20;;;4.70;;
64799;SDS011;51233;51.982;4.594;2023-06-24T17:09:29;6.90;;;4.83;;
64799;SDS011;51233;51.982;4.594;2023-06-24T17:12:29;5.68;;;5.10;;
64799;SDS011;51233;51.982;4.594;2023-06-24T17:15:29;5.40;;;4.93;;
64799;SDS011;51233;51.982;4.594;2023-06-24T17:18:29;6.13;;;4.40;;
64799;SDS011;51233;51.982;4.594;2023-06-24T17:21:30;5.47;;;4.93;;
64799;SDS011;51233;51.982;4.594;2023-06-24T17:24:30;7.23;;;5.03;;
64799;SDS011;51233;51.982;4.594;2023-06-24T17:27:30;9.77;;;4.70;;
64799;SDS011;51233;51.982;4.594;2023-06-24T17:30:30;4.17;;;3.87;;
64799;SDS011;51233;51.982;4.594;2023-06-24T17:33:30;3.95;;;3.65;;
64799;SDS011;51233;51.982;4.594;2023-06-24T17:36:31;4.07;;;3.78;;
64799;SDS011;51233;51.982;4.594;2023-06-24T17:39:31;3.93;;;3.60;;
64799;SDS011;51233;51.982;4.594;2023-06-24T17:42:31;19.37;;;9.17;;
64799;SDS011;51233;51.982;4.594;2023-06-24T17:45:32;5.83;;;4.80;;
64799;SDS011;51233;51.982;4.594;2023-06-24T17:48:34;4.25;;;3.85;;
64799;SDS011;51233;51.982;4.594;2023-06-24T17:51:35;4.87;;;4.47;;
64799;SDS011;51233;51.982;4.594;2023-06-24T17:54:35;6.15;;;5.55;;
64799;SDS011;51233;51.982;4.594;2023-06-24T17:57:35;5.10;;;4.60;;
64799;SDS011;51233;51.982;4.594;2023-06-24T18:00:35;5.43;;;4.68;;
64799;SDS011;51233;51.982;4.594;2023-06-24T18:03:44;4.95;;;3.88;;
64799;SDS011;51233;51.982;4.594;2023-06-24T18:06:46;6.10;;;4.32;;
64799;SDS011;51233;51.982;4.594;2023-06-24T18:09:46;19.40;;;9.37;;
64799;SDS011;51233;51.982;4.594;2023-06-24T18:12:46;4.20;;;3.90;;
64799;SDS011;51233;51.982;4.594;2023-06-24T18:15:46;4.30;;;3.90;;
64799;SDS011;51233;51.982;4.594;2023-06-24T18:18:47;3.90;;;3.60;;
64799;SDS011;51233;51.982;4.594;2023-06-24T18:21:47;5.43;;;5.00;;
64799;SDS011;51233;51.982;4.594;2023-06-24T18:24:47;5.37;;;4.53;;
64799;SDS011;51233;51.982;4.594;2023-06-24T18:27:47;4.07;;;3.77;;
64799;SDS011;51233;51.982;4.594;2023-06-24T18:30:48;8.03;;;4.37;;
64799;SDS011;51233;51.982;4.594;2023-06-24T18:33:49;3.85;;;3.55;;
64799;SDS011;51233;51.982;4.594;2023-06-24T18:36:49;4.43;;;4.13;;
64799;SDS011;51233;51.982;4.594;2023-06-24T18:39:49;4.13;;;3.83;;